createdAt,value
2018-08-16T00:00:32.672Z,22.10
2018-08-16T00:03:01.815Z,22.09
2018-08-16T00:05:31.028Z,22.08
2018-08-16T00:08:00.371Z,22.16
2018-08-16T00:10:35.497Z,22.09
2018-08-16T00:13:05.090Z,22.04
2018-08-16T00:15:38.423Z,22.03
2018-08-16T00:18:07.902Z,22.02
2018-08-16T00:20:38.029Z,21.98
2018-08-16T00:23:07.069Z,21.97
2018-08-16T00:25:36.255Z,21.86
2018-08-16T00:28:05.657Z,21.83
2018-08-16T00:30:34.890Z,21.79
2018-08-16T00:33:03.791Z,21.80
2018-08-16T00:35:32.718Z,21.76
2018-08-16T00:38:01.785Z,21.67
2018-08-16T00:40:31.075Z,21.63
2018-08-16T00:43:01.128Z,21.62
2018-08-16T00:45:30.111Z,21.58
2018-08-16T00:47:59.084Z,21.57
2018-08-16T00:50:28.064Z,21.52
2018-08-16T00:52:56.901Z,21.48
2018-08-16T00:55:26.237Z,21.45
2018-08-16T00:58:02.569Z,21.42
2018-08-16T01:00:32.377Z,21.36
2018-08-16T01:03:07.553Z,21.28
2018-08-16T01:05:37.399Z,21.21
2018-08-16T01:08:06.579Z,21.16
2018-08-16T01:10:36.073Z,21.15
2018-08-16T01:13:05.434Z,21.12
2018-08-16T01:15:34.430Z,21.13
2018-08-16T01:18:03.448Z,21.07
2018-08-16T01:20:32.725Z,21.07
2018-08-16T01:23:01.638Z,21.03
2018-08-16T01:25:30.420Z,21.03
2018-08-16T01:28:00.654Z,21.04
2018-08-16T01:30:37.788Z,20.99
2018-08-16T01:33:07.262Z,21.00
2018-08-16T01:35:38.327Z,21.02
2018-08-16T01:38:07.871Z,21.04
2018-08-16T01:40:38.503Z,21.05
2018-08-16T01:43:07.732Z,21.04
2018-08-16T01:45:37.647Z,21.01
2018-08-16T01:48:10.988Z,20.99
2018-08-16T01:50:40.210Z,20.94
2018-08-16T01:53:09.325Z,20.88
2018-08-16T01:55:38.212Z,20.86
2018-08-16T01:58:07.266Z,20.80
2018-08-16T02:00:36.285Z,20.74
2018-08-16T02:03:05.485Z,20.65
2018-08-16T02:05:34.431Z,20.55
2018-08-16T02:08:03.411Z,20.50
2018-08-16T02:10:32.535Z,20.48
2018-08-16T02:13:01.629Z,20.47
2018-08-16T02:15:30.632Z,20.47
2018-08-16T02:18:00.070Z,20.37
2018-08-16T02:20:28.988Z,20.45
2018-08-16T02:22:57.920Z,20.46
2018-08-16T02:25:27.565Z,20.48
2018-08-16T02:27:56.589Z,20.39
2018-08-16T02:30:25.663Z,20.48
2018-08-16T02:32:55.450Z,20.44
2018-08-16T02:35:24.408Z,20.44
2018-08-16T02:37:54.322Z,20.48
2018-08-16T02:40:23.784Z,20.43
2018-08-16T02:42:52.605Z,20.33
2018-08-16T02:45:21.529Z,20.34
2018-08-16T02:47:50.450Z,20.33
2018-08-16T02:50:19.372Z,20.33
2018-08-16T02:52:48.470Z,20.22
2018-08-16T02:55:17.575Z,20.26
2018-08-16T02:57:46.777Z,20.20
2018-08-16T03:00:15.824Z,20.13
2018-08-16T03:02:44.956Z,20.11
2018-08-16T03:05:13.848Z,20.13
2018-08-16T03:07:42.893Z,20.16
2018-08-16T03:10:12.259Z,20.14
2018-08-16T03:12:41.250Z,20.14
2018-08-16T03:15:11.122Z,20.16
2018-08-16T03:17:40.985Z,20.11
2018-08-16T03:20:09.967Z,20.11
2018-08-16T03:22:39.185Z,20.13
2018-08-16T03:25:08.640Z,20.10
2018-08-16T03:27:41.435Z,20.04
2018-08-16T03:30:17.053Z,20.04
2018-08-16T03:32:45.892Z,20.03
2018-08-16T03:35:14.859Z,20.03
2018-08-16T03:37:43.925Z,20.07
2018-08-16T03:40:12.788Z,20.10
2018-08-16T03:42:42.536Z,20.12
2018-08-16T03:45:11.553Z,20.23
2018-08-16T03:47:40.516Z,20.26
2018-08-16T03:50:09.785Z,20.23
2018-08-16T03:52:38.956Z,20.30
2018-08-16T03:55:08.026Z,20.42
2018-08-16T03:57:37.107Z,20.59
2018-08-16T04:00:07.822Z,20.74
2018-08-16T04:02:36.827Z,20.80
2018-08-16T04:05:06.462Z,20.90
2018-08-16T04:07:35.760Z,21.00
2018-08-16T04:10:05.186Z,21.16
2018-08-16T04:12:34.182Z,21.31
2018-08-16T04:15:03.860Z,21.42
2018-08-16T04:17:35.112Z,21.51
2018-08-16T04:20:05.277Z,21.61
2018-08-16T04:22:34.639Z,21.72
2018-08-16T04:25:03.999Z,21.76
2018-08-16T04:27:33.368Z,22.02
2018-08-16T04:30:02.345Z,22.17
2018-08-16T04:32:31.473Z,22.29
2018-08-16T04:35:00.722Z,22.37
2018-08-16T04:37:29.827Z,22.43
2018-08-16T04:39:58.947Z,22.52
2018-08-16T04:42:29.138Z,22.68
2018-08-16T04:44:58.104Z,22.78
2018-08-16T04:47:26.985Z,22.89
2018-08-16T04:49:55.765Z,22.84
2018-08-16T04:52:24.795Z,22.93
2018-08-16T04:54:53.766Z,22.99
2018-08-16T04:57:24.103Z,23.00
2018-08-16T04:59:53.182Z,23.22
2018-08-16T05:02:22.131Z,23.18
2018-08-16T05:04:50.960Z,23.23
2018-08-16T05:07:19.818Z,23.50
2018-08-16T05:09:48.941Z,23.78
2018-08-16T05:12:17.849Z,23.98
2018-08-16T05:14:46.768Z,24.23
2018-08-16T05:17:15.621Z,24.43
2018-08-16T05:19:45.138Z,24.59
2018-08-16T05:22:14.115Z,24.78
2018-08-16T05:24:42.956Z,24.93
2018-08-16T05:27:12.440Z,25.12
2018-08-16T05:29:41.411Z,25.24
2018-08-16T05:32:10.170Z,25.21
2018-08-16T05:34:39.504Z,25.43
2018-08-16T05:37:08.427Z,25.45
2018-08-16T05:39:37.225Z,25.62
2018-08-16T05:42:06.380Z,25.56
2018-08-16T05:44:35.266Z,25.71
2018-08-16T05:47:04.112Z,25.68
2018-08-16T05:49:33.430Z,25.93
2018-08-16T05:52:02.353Z,26.04
2018-08-16T05:54:31.100Z,25.98
2018-08-16T05:57:00.512Z,25.79
2018-08-16T05:59:29.426Z,25.59
2018-08-16T06:01:58.206Z,25.49
2018-08-16T06:04:27.699Z,25.53
2018-08-16T06:06:56.540Z,25.54
2018-08-16T06:09:25.500Z,25.52
2018-08-16T06:11:54.855Z,25.57
2018-08-16T06:14:23.871Z,25.41
2018-08-16T06:16:52.731Z,25.46
2018-08-16T06:19:21.581Z,25.55
2018-08-16T06:21:50.389Z,25.56
2018-08-16T06:24:19.367Z,25.62
2018-08-16T06:26:48.800Z,25.74
2018-08-16T06:29:17.691Z,25.84
2018-08-16T06:31:46.618Z,25.84
2018-08-16T06:34:15.541Z,25.90
2018-08-16T06:36:44.524Z,25.97
2018-08-16T06:39:14.012Z,26.04
2018-08-16T06:41:43.326Z,26.05
2018-08-16T06:44:12.254Z,26.10
2018-08-16T06:46:41.162Z,26.20
2018-08-16T06:49:10.047Z,26.28
2018-08-16T06:51:38.932Z,26.32
2018-08-16T06:54:07.781Z,26.41
2018-08-16T06:56:37.093Z,26.52
2018-08-16T06:59:06.042Z,26.61
2018-08-16T07:01:34.937Z,26.72
2018-08-16T07:04:04.360Z,26.84
2018-08-16T07:06:33.276Z,26.93
2018-08-16T07:09:02.003Z,26.97
2018-08-16T07:11:31.210Z,27.02
2018-08-16T07:14:00.132Z,27.06
2018-08-16T07:16:28.999Z,27.13
2018-08-16T07:18:59.363Z,27.22
2018-08-16T07:21:28.168Z,27.24
2018-08-16T07:23:57.062Z,27.34
2018-08-16T07:26:26.408Z,27.44
2018-08-16T07:28:55.282Z,27.53
2018-08-16T07:31:24.180Z,27.61
2018-08-16T07:33:53.123Z,27.65
2018-08-16T07:36:21.880Z,27.74
2018-08-16T07:38:50.743Z,27.83
2018-08-16T07:41:20.218Z,27.95
2018-08-16T07:43:49.279Z,28.02
2018-08-16T07:46:18.232Z,28.06
2018-08-16T07:48:48.340Z,28.19
2018-08-16T07:51:17.300Z,28.23
2018-08-16T07:53:46.100Z,28.31
2018-08-16T07:56:15.111Z,28.41
2018-08-16T07:58:43.958Z,28.57
2018-08-16T08:01:12.812Z,28.68
2018-08-16T08:03:41.680Z,28.71
2018-08-16T08:06:10.508Z,28.77
2018-08-16T08:08:39.329Z,28.78
2018-08-16T08:11:08.759Z,28.95
2018-08-16T08:13:37.645Z,29.03
2018-08-16T08:16:06.613Z,29.07
2018-08-16T08:18:35.941Z,29.22
2018-08-16T08:21:04.890Z,29.34
2018-08-16T08:23:33.720Z,29.41
2018-08-16T08:26:02.718Z,29.53
2018-08-16T08:28:31.573Z,29.63
2018-08-16T08:31:00.542Z,29.65
2018-08-16T08:33:30.104Z,29.76
2018-08-16T08:36:09.841Z,29.96
2018-08-16T08:38:38.722Z,30.16
2018-08-16T08:41:07.712Z,30.22
2018-08-16T08:43:49.197Z,30.36
2018-08-16T08:46:18.104Z,30.45
2018-08-16T08:48:47.081Z,30.40
2018-08-16T08:51:16.458Z,30.49
2018-08-16T08:54:56.400Z,30.46
2018-08-16T08:57:36.947Z,30.59
2018-08-16T09:00:07.609Z,30.62
2018-08-16T09:02:36.681Z,30.73
2018-08-16T09:05:06.595Z,30.76
2018-08-16T09:07:35.381Z,30.87
2018-08-16T09:11:15.953Z,31.05
2018-08-16T09:13:56.912Z,31.21
2018-08-16T09:16:30.454Z,31.27
2018-08-16T09:18:59.538Z,31.18
2018-08-16T09:21:29.145Z,31.38
2018-08-16T09:23:58.387Z,31.58
2018-08-16T09:26:32.320Z,31.72
2018-08-16T09:29:01.250Z,31.80
2018-08-16T09:31:40.961Z,31.89
2018-08-16T09:34:18.957Z,31.94
2018-08-16T09:36:47.816Z,32.00
2018-08-16T09:39:16.838Z,32.14
2018-08-16T09:41:45.780Z,32.07
2018-08-16T09:44:14.619Z,32.13
2018-08-16T09:46:56.108Z,32.18
2018-08-16T09:49:24.993Z,32.18
2018-08-16T09:51:54.146Z,32.17
2018-08-16T09:54:23.099Z,31.87
2018-08-16T09:56:52.518Z,32.08
2018-08-16T09:59:21.476Z,32.21
2018-08-16T10:01:50.419Z,32.17
2018-08-16T10:04:19.258Z,32.20
2018-08-16T10:06:48.152Z,32.47
2018-08-16T10:09:25.527Z,32.52
2018-08-16T10:11:55.302Z,32.22
2018-08-16T10:14:24.236Z,32.28
2018-08-16T10:16:53.597Z,32.44
2018-08-16T10:19:22.911Z,32.64
2018-08-16T10:21:51.690Z,32.72
2018-08-16T10:24:20.930Z,32.33
2018-08-16T10:26:49.994Z,32.56
2018-08-16T10:29:18.924Z,32.77
2018-08-16T10:31:48.772Z,32.98
2018-08-16T10:34:17.513Z,32.58
2018-08-16T10:36:46.423Z,32.67
2018-08-16T10:39:17.436Z,32.53
2018-08-16T10:41:46.588Z,32.65
2018-08-16T10:44:15.705Z,32.84
2018-08-16T10:53:30.133Z,33.15
2018-08-16T10:55:59.835Z,33.27
2018-08-16T10:58:28.819Z,33.47
2018-08-16T11:00:58.309Z,33.39
2018-08-16T11:03:27.208Z,33.51
2018-08-16T11:05:56.545Z,33.78
2018-08-16T11:08:26.033Z,33.57
2018-08-16T11:10:55.002Z,33.13
2018-08-16T11:13:23.916Z,33.13
2018-08-16T11:15:53.202Z,33.20
2018-08-16T11:21:00.579Z,33.35
2018-08-16T11:23:29.699Z,33.60
2018-08-16T11:25:59.092Z,33.65
2018-08-16T11:28:28.091Z,33.78
2018-08-16T11:30:57.013Z,33.68
2018-08-16T11:33:26.066Z,33.09
2018-08-16T11:35:55.320Z,33.02
2018-08-16T11:38:25.376Z,33.20
2018-08-16T11:40:54.316Z,33.50
2018-08-16T11:43:23.542Z,33.87
2018-08-16T11:45:52.334Z,34.27
2018-08-16T11:48:21.222Z,34.55
2018-08-16T11:57:35.355Z,34.36
2018-08-16T12:00:04.421Z,33.83
2018-08-16T12:02:33.265Z,33.22
2018-08-16T12:05:02.416Z,33.59
2018-08-16T12:07:31.204Z,33.62
2018-08-16T12:10:00.088Z,33.23
2018-08-16T12:12:28.974Z,32.90
2018-08-16T12:14:57.753Z,33.25
2018-08-16T12:17:26.677Z,33.79
2018-08-16T12:19:56.021Z,34.15
2018-08-16T12:22:24.860Z,34.51
2018-08-16T12:24:53.795Z,34.66
2018-08-16T12:27:23.022Z,34.42
2018-08-16T12:29:51.947Z,34.53
2018-08-16T12:32:20.825Z,34.54
2018-08-16T12:34:50.470Z,34.81
2018-08-16T12:37:19.358Z,35.01
2018-08-16T12:39:48.312Z,34.96
2018-08-16T12:42:17.399Z,34.87
2018-08-16T12:44:46.342Z,34.40
2018-08-16T12:47:15.220Z,34.51
2018-08-16T12:49:44.100Z,34.13
2018-08-16T12:52:12.856Z,33.90
2018-08-16T12:54:41.697Z,34.07
2018-08-16T12:57:10.931Z,34.19
2018-08-16T12:59:39.712Z,33.59
2018-08-16T13:02:08.763Z,33.83
2018-08-16T13:04:38.190Z,33.93
2018-08-16T13:07:07.043Z,33.73
2018-08-16T13:09:35.945Z,33.75
2018-08-16T13:12:05.269Z,33.82
2018-08-16T13:14:34.029Z,33.91
2018-08-16T13:17:02.815Z,33.85
2018-08-16T13:20:34.793Z,34.12
2018-08-16T13:23:03.724Z,34.55
2018-08-16T13:25:32.603Z,34.94
2018-08-16T13:28:01.525Z,34.65
2018-08-16T13:30:30.473Z,34.60
2018-08-16T13:32:59.273Z,34.94
2018-08-16T13:35:28.150Z,34.38
2018-08-16T13:37:57.055Z,34.35
2018-08-16T13:40:25.866Z,34.46
2018-08-16T13:42:54.657Z,34.35
2018-08-16T13:45:23.602Z,34.16
2018-08-16T13:47:52.429Z,34.11
2018-08-16T13:50:21.282Z,34.47
2018-08-16T13:52:50.081Z,34.76
2018-08-16T13:55:19.002Z,34.95
2018-08-16T13:57:48.365Z,34.97
2018-08-16T14:00:17.182Z,34.71
2018-08-16T14:02:46.131Z,34.47
2018-08-16T14:05:15.047Z,34.11
2018-08-16T14:07:43.976Z,34.02
2018-08-16T14:10:12.935Z,33.92
2018-08-16T14:12:42.559Z,33.64
2018-08-16T14:15:11.391Z,33.34
2018-08-16T14:17:40.179Z,33.42
2018-08-16T14:20:09.515Z,33.31
2018-08-16T14:22:38.303Z,33.47
2018-08-16T14:25:07.641Z,33.44
2018-08-16T14:27:36.494Z,33.43
2018-08-16T14:30:06.848Z,33.40
2018-08-16T14:32:35.894Z,33.37
2018-08-16T14:35:04.984Z,33.36
2018-08-16T14:37:35.446Z,33.53
2018-08-16T14:40:04.374Z,33.57
2018-08-16T14:42:33.294Z,33.78
2018-08-16T14:45:02.232Z,33.98
2018-08-16T14:47:31.240Z,33.93
2018-08-16T14:50:00.157Z,33.89
2018-08-16T14:52:28.967Z,33.57
2018-08-16T14:54:57.888Z,33.22
2018-08-16T14:57:26.763Z,32.81
2018-08-16T14:59:55.501Z,32.85
2018-08-16T15:02:24.473Z,32.94
2018-08-16T15:04:53.429Z,33.00
2018-08-16T15:07:22.416Z,32.88
2018-08-16T15:09:51.630Z,32.90
2018-08-16T15:12:20.498Z,32.81
2018-08-16T15:14:49.330Z,32.79
2018-08-16T15:17:18.332Z,32.67
2018-08-16T15:19:47.276Z,32.76
2018-08-16T15:22:16.251Z,32.78
2018-08-16T15:24:45.366Z,32.88
2018-08-16T15:27:14.145Z,32.84
2018-08-16T15:29:43.076Z,32.72
2018-08-16T15:32:12.268Z,32.62
2018-08-16T15:34:41.024Z,32.43
2018-08-16T15:37:10.005Z,32.29
2018-08-16T15:39:39.295Z,32.32
2018-08-16T15:42:08.113Z,32.27
2018-08-16T15:44:36.963Z,32.18
2018-08-16T15:47:06.377Z,32.27
2018-08-16T15:49:35.250Z,32.32
2018-08-16T15:52:04.215Z,32.36
2018-08-16T15:54:33.478Z,32.43
2018-08-16T16:03:47.411Z,32.28
2018-08-16T16:06:16.433Z,32.35
2018-08-16T16:08:45.276Z,32.26
2018-08-16T16:11:14.689Z,32.38
2018-08-16T16:13:43.680Z,32.39
2018-08-16T16:16:12.539Z,32.19
2018-08-16T16:18:41.984Z,32.12
2018-08-16T16:21:10.929Z,32.04
2018-08-16T16:23:39.803Z,32.00
2018-08-16T16:26:09.060Z,32.03
2018-08-16T16:28:37.994Z,32.13
2018-08-16T16:32:09.588Z,32.06
2018-08-16T16:34:38.424Z,31.90
2018-08-16T16:37:07.312Z,31.91
2018-08-16T16:39:36.315Z,31.88
2018-08-16T16:42:05.302Z,31.84
2018-08-16T16:44:33.974Z,31.75
2018-08-16T16:47:03.221Z,31.75
2018-08-16T16:49:32.101Z,31.73
2018-08-16T16:52:01.008Z,31.75
2018-08-16T16:54:29.985Z,31.63
2018-08-16T16:56:58.936Z,31.52
2018-08-16T16:59:27.849Z,31.40
2018-08-16T17:01:56.759Z,31.36
2018-08-16T17:04:25.636Z,31.27
2018-08-16T17:06:54.856Z,31.22
2018-08-16T17:09:24.258Z,31.14
2018-08-16T17:12:55.556Z,31.07
2018-08-16T17:15:24.613Z,30.97
2018-08-16T17:17:53.538Z,30.85
2018-08-16T17:20:22.356Z,30.83
2018-08-16T17:22:51.220Z,30.70
2018-08-16T17:25:20.002Z,30.74
2018-08-16T17:27:48.825Z,30.63
2018-08-16T17:30:18.090Z,30.60
2018-08-16T17:32:46.958Z,30.48
2018-08-16T17:35:15.843Z,30.37
2018-08-16T17:37:45.112Z,30.37
2018-08-16T17:40:14.033Z,30.39
2018-08-16T17:44:12.362Z,30.33
2018-08-16T17:46:41.368Z,30.19
2018-08-16T17:49:10.337Z,30.13
2018-08-16T17:51:39.467Z,30.08
2018-08-16T17:54:08.311Z,30.10
2018-08-16T17:56:37.127Z,30.02
2018-08-16T17:59:06.385Z,30.01
2018-08-16T18:01:35.366Z,29.96
2018-08-16T18:04:04.294Z,29.94
2018-08-16T18:06:33.241Z,29.89
2018-08-16T18:09:02.139Z,29.81
2018-08-16T18:11:30.953Z,29.79
2018-08-16T18:15:02.709Z,29.77
2018-08-16T18:17:31.560Z,29.66
2018-08-16T18:20:00.524Z,29.72
2018-08-16T18:22:29.834Z,29.67
2018-08-16T18:24:58.824Z,29.71
2018-08-16T18:27:27.663Z,29.73
2018-08-16T18:29:56.638Z,29.60
2018-08-16T18:32:25.608Z,29.68
2018-08-16T18:34:54.617Z,29.70
2018-08-16T18:37:23.705Z,29.67
2018-08-16T18:39:52.766Z,29.50
2018-08-16T18:42:21.952Z,29.29
2018-08-16T18:44:51.419Z,29.16
2018-08-16T18:47:20.713Z,28.74
2018-08-16T18:49:49.861Z,28.41
2018-08-16T18:52:18.782Z,28.16
2018-08-16T18:54:47.748Z,28.02
2018-08-16T18:57:16.806Z,27.86
2018-08-16T18:59:45.982Z,27.43
2018-08-16T19:02:14.983Z,27.36
2018-08-16T19:04:43.835Z,27.16
2018-08-16T19:07:12.822Z,27.10
2018-08-16T19:09:41.674Z,26.66
2018-08-16T19:12:10.580Z,26.13
2018-08-16T19:14:39.740Z,25.78
2018-08-16T19:17:08.639Z,25.68
2018-08-16T19:19:37.379Z,25.71
2018-08-16T19:22:06.620Z,25.67
2018-08-16T19:24:35.497Z,25.47
2018-08-16T19:27:04.459Z,25.33
2018-08-16T19:29:33.332Z,25.43
2018-08-16T19:32:02.233Z,25.62
2018-08-16T19:34:31.062Z,25.71
2018-08-16T19:37:00.359Z,25.78
2018-08-16T19:39:29.238Z,25.91
2018-08-16T19:41:58.119Z,25.25
2018-08-16T19:44:27.371Z,24.34
2018-08-16T19:46:56.285Z,23.74
2018-08-16T19:49:25.226Z,23.24
2018-08-16T19:51:54.198Z,23.02
2018-08-16T19:54:23.242Z,22.93
2018-08-16T19:56:52.297Z,22.83
2018-08-16T19:59:21.505Z,22.84
2018-08-16T20:01:50.379Z,22.82
2018-08-16T20:04:19.281Z,22.90
2018-08-16T20:06:48.624Z,22.94
2018-08-16T20:09:17.524Z,23.06
2018-08-16T20:11:46.532Z,23.07
2018-08-16T20:14:15.524Z,23.17
2018-08-16T20:16:44.553Z,23.13
2018-08-16T20:19:13.507Z,23.18
2018-08-16T20:21:44.762Z,23.24
2018-08-16T20:24:13.771Z,23.28
2018-08-16T20:26:43.031Z,23.56
2018-08-16T20:29:12.052Z,23.22
2018-08-16T20:31:43.175Z,22.90
2018-08-16T20:34:12.564Z,22.79
2018-08-16T20:36:41.634Z,22.72
2018-08-16T20:39:10.720Z,22.61
2018-08-16T20:41:40.002Z,22.55
2018-08-16T20:44:10.328Z,22.48
2018-08-16T20:46:39.673Z,22.39
2018-08-16T20:49:09.194Z,22.38
2018-08-16T20:51:38.714Z,22.47
2018-08-16T20:54:07.903Z,22.43
2018-08-16T20:56:36.910Z,22.45
2018-08-16T20:59:06.018Z,22.59
2018-08-16T21:01:35.119Z,22.73
2018-08-16T21:04:04.272Z,22.71
2018-08-16T21:06:33.156Z,22.69
2018-08-16T21:09:02.208Z,22.70
2018-08-16T21:11:31.235Z,22.66
2018-08-16T21:14:00.365Z,22.62
2018-08-16T21:16:29.426Z,22.59
2018-08-16T21:18:59.086Z,22.53
2018-08-16T21:21:28.043Z,22.40
2018-08-16T21:23:57.034Z,22.26
2018-08-16T21:26:26.571Z,22.08
2018-08-16T21:28:55.395Z,21.83
2018-08-16T21:31:24.303Z,21.68
2018-08-16T21:33:53.843Z,21.60
2018-08-16T21:36:22.785Z,21.58
2018-08-16T21:38:51.813Z,21.63
2018-08-16T21:41:20.780Z,21.64
2018-08-16T21:43:49.815Z,21.63
2018-08-16T21:46:18.667Z,21.60
2018-08-16T21:48:47.690Z,21.57
2018-08-16T21:51:16.826Z,21.60
2018-08-16T21:53:45.727Z,21.49
2018-08-16T21:56:15.079Z,21.46
2018-08-16T21:58:43.991Z,21.46
2018-08-16T22:01:13.238Z,21.40
2018-08-16T22:03:42.729Z,21.42
2018-08-16T22:06:16.150Z,21.44
2018-08-16T22:08:52.233Z,21.53
2018-08-16T22:11:21.223Z,21.59
2018-08-16T22:13:50.305Z,21.62
2018-08-16T22:16:19.908Z,21.60
2018-08-16T22:18:48.934Z,21.61
2018-08-16T22:21:17.984Z,21.60
2018-08-16T22:23:47.579Z,21.65
2018-08-16T22:26:16.972Z,21.63
2018-08-16T22:28:45.913Z,21.60
2018-08-16T22:31:15.416Z,21.62
2018-08-16T22:33:44.450Z,21.59
2018-08-16T22:36:13.418Z,21.63
2018-08-16T22:38:42.550Z,21.61
2018-08-16T22:41:11.532Z,21.53
2018-08-16T22:43:40.427Z,21.52
2018-08-16T22:46:09.524Z,21.54
2018-08-16T22:48:38.413Z,21.56
2018-08-16T22:51:07.686Z,21.59
2018-08-16T22:53:36.832Z,21.59
2018-08-16T22:56:05.901Z,21.59
2018-08-16T22:58:35.005Z,21.63
2018-08-16T23:01:04.558Z,21.67
2018-08-16T23:03:33.616Z,21.66
2018-08-16T23:06:02.679Z,21.67
2018-08-16T23:08:32.263Z,21.68
2018-08-16T23:11:01.225Z,21.69
2018-08-16T23:13:30.321Z,21.70
2018-08-16T23:15:59.973Z,21.65
2018-08-16T23:18:28.988Z,21.64
2018-08-16T23:20:58.172Z,21.64
2018-08-16T23:23:27.454Z,21.64
2018-08-16T23:25:56.496Z,21.60
2018-08-16T23:28:25.508Z,21.56
2018-08-16T23:30:55.096Z,21.50
2018-08-16T23:33:24.127Z,21.45
2018-08-16T23:35:53.275Z,21.37
2018-08-16T23:38:22.385Z,21.27
2018-08-16T23:40:51.436Z,21.18
2018-08-16T23:43:20.519Z,21.09
2018-08-16T23:45:49.580Z,21.05
2018-08-16T23:48:27.531Z,21.00
2018-08-16T23:50:56.713Z,20.96
2018-08-16T23:53:25.708Z,20.92
2018-08-16T23:55:54.840Z,20.90
2018-08-16T23:58:24.010Z,20.89
